Time;durP1;ratioP1;P1;durP2;ratioP2;P2;SDS_P1;SDS_P2;PMS_P1;PMS_P2;Temp;Humidity;BMP_temperature;BMP_pressure;BME280_temperature;BME280_humidity;BME280_pressure;Samples;Min_cycle;Max_cycle;Signal;HPM_P1;HPM_P2
2021/12/09 00:01:42;;;;;;;11.63;4.72;;;3.60;93.50;;;;;;5138361;27;38300;-65
2021/12/09 00:04:14;;;;;;;10.80;4.35;;;3.90;93.70;;;;;;5139325;27;35144;-65
2021/12/09 00:06:44;;;;;;;10.50;4.47;;;3.80;93.80;;;;;;5137696;27;37731;-65
2021/12/09 00:09:13;;;;;;;16.60;6.03;;;3.80;93.90;;;;;;5138841;27;38984;-64
2021/12/09 00:11:45;;;;;;;9.60;4.43;;;3.80;93.90;;;;;;5138656;27;37716;-65
2021/12/09 00:14:14;;;;;;;11.30;4.57;;;3.70;94.00;;;;;;5137617;27;36979;-65
2021/12/09 00:16:42;;;;;;;8.88;4.25;;;3.70;94.00;;;;;;5139076;27;36363;-65
2021/12/09 00:19:09;;;;;;;9.98;4.93;;;3.70;94.10;;;;;;5138291;27;38972;-65
2021/12/09 00:21:37;;;;;;;16.35;4.80;;;3.60;94.10;;;;;;5136444;27;37498;-65
2021/12/09 00:24:05;;;;;;;10.32;5.15;;;3.60;94.40;;;;;;5137696;27;36674;-64
2021/12/09 00:26:32;;;;;;;11.15;5.05;;;3.60;94.50;;;;;;5136862;27;37483;-65
2021/12/09 00:29:01;;;;;;;13.75;5.25;;;3.60;94.30;;;;;;5138766;27;37234;-64
2021/12/09 00:31:29;;;;;;;10.90;4.95;;;3.60;94.40;;;;;;5137656;27;37269;-64
2021/12/09 00:33:58;;;;;;;12.48;5.50;;;3.50;94.40;;;;;;5139752;27;36396;-64
2021/12/09 00:36:34;;;;;;;10.57;5.63;;;3.50;94.50;;;;;;5138126;27;37261;-65
2021/12/09 00:39:03;;;;;;;10.70;4.72;;;3.40;94.50;;;;;;5139803;27;37705;-65
2021/12/09 00:41:30;;;;;;;9.30;4.30;;;3.40;94.70;;;;;;5138374;27;38379;-64
2021/12/09 00:43:57;;;;;;;10.93;4.68;;;3.50;94.70;;;;;;5138181;27;35228;-65
2021/12/09 00:46:26;;;;;;;11.00;5.07;;;3.60;94.70;;;;;;5139282;27;36224;-65
2021/12/09 00:48:54;;;;;;;13.45;5.07;;;3.60;94.60;;;;;;5137297;27;37318;-64
2021/12/09 00:51:21;;;;;;;10.20;4.57;;;3.70;94.50;;;;;;5138649;27;37491;-65
2021/12/09 00:53:49;;;;;;;10.32;5.00;;;3.70;94.50;;;;;;5139635;27;35190;-64
2021/12/09 00:56:16;;;;;;;8.93;4.85;;;3.70;94.40;;;;;;5139113;27;40693;-64
2021/12/09 00:58:44;;;;;;;13.13;4.95;;;3.70;94.40;;;;;;5136710;27;37514;-65
2021/12/09 01:01:12;;;;;;;11.52;4.95;;;3.70;94.30;;;;;;5136405;27;38812;-65
2021/12/09 01:03:42;;;;;;;13.90;4.85;;;3.80;94.30;;;;;;5137710;27;36443;-65
2021/12/09 01:06:10;;;;;;;11.80;5.28;;;3.80;94.10;;;;;;5137470;27;37384;-65
2021/12/09 01:08:38;;;;;;;12.48;5.38;;;3.80;94.10;;;;;;5137413;27;37780;-65
2021/12/09 01:11:06;;;;;;;9.73;4.75;;;3.90;94.00;;;;;;5135823;27;38148;-64
2021/12/09 01:13:34;;;;;;;13.73;4.75;;;3.90;93.90;;;;;;5137012;27;36582;-65
2021/12/09 01:16:02;;;;;;;10.27;4.93;;;3.90;93.80;;;;;;5137463;27;36319;-65
2021/12/09 01:18:29;;;;;;;10.15;4.68;;;3.90;93.70;;;;;;5138984;27;37234;-65
2021/12/09 01:20:58;;;;;;;11.88;4.93;;;3.80;93.60;;;;;;5138010;27;35946;-65
2021/12/09 01:23:25;;;;;;;13.32;5.18;;;3.90;93.60;;;;;;5138341;27;37867;-65
2021/12/09 01:25:58;;;;;;;11.35;5.82;;;3.90;93.60;;;;;;5137141;27;36100;-64
2021/12/09 01:28:27;;;;;;;11.30;5.63;;;3.80;93.50;;;;;;5135751;27;39305;-65
2021/12/09 01:31:01;;;;;;;13.85;6.30;;;3.80;93.60;;;;;;5136743;27;38417;-64
2021/12/09 01:33:29;;;;;;;12.38;5.45;;;3.80;93.60;;;;;;5136902;27;36799;-65
2021/12/09 01:35:57;;;;;;;11.93;6.03;;;3.80;93.70;;;;;;5137260;27;38118;-64
2021/12/09 01:38:28;;;;;;;9.98;5.25;;;3.70;93.70;;;;;;5137406;27;39097;-64
2021/12/09 01:40:55;;;;;;;13.93;6.70;;;3.70;93.80;;;;;;5137166;27;38914;-64
2021/12/09 01:43:23;;;;;;;12.05;6.78;;;3.80;93.80;;;;;;5136350;27;37472;-65
2021/12/09 01:46:02;;;;;;;12.85;5.25;;;3.80;93.80;;;;;;5137440;27;38252;-65
2021/12/09 01:48:29;;;;;;;11.40;6.82;;;3.80;93.80;;;;;;5137275;27;39604;-65
2021/12/09 01:50:58;;;;;;;10.35;5.95;;;3.70;93.80;;;;;;5137912;27;37388;-64
2021/12/09 01:53:25;;;;;;;12.02;5.63;;;3.70;93.80;;;;;;5138229;27;36399;-64
2021/12/09 01:55:57;;;;;;;12.73;5.95;;;3.70;93.80;;;;;;5138153;27;38228;-65
2021/12/09 01:58:25;;;;;;;12.50;5.88;;;3.60;93.80;;;;;;5137043;27;37839;-64
2021/12/09 02:00:52;;;;;;;12.73;6.40;;;3.50;94.00;;;;;;5138216;27;37652;-65
2021/12/09 02:03:20;;;;;;;14.82;6.55;;;3.50;94.10;;;;;;5136344;27;37891;-64
2021/12/09 02:05:47;;;;;;;13.65;6.95;;;3.60;94.30;;;;;;5137048;27;37514;-65
2021/12/09 02:08:17;;;;;;;11.00;6.32;;;3.40;94.30;;;;;;5137257;27;38059;-64
2021/12/09 02:10:46;;;;;;;17.10;6.90;;;3.40;94.40;;;;;;5138512;27;38893;-65
2021/12/09 02:13:15;;;;;;;14.25;7.20;;;3.40;94.40;;;;;;5137203;27;36060;-65
2021/12/09 02:15:43;;;;;;;16.33;6.40;;;3.40;94.50;;;;;;5137310;27;37111;-65
2021/12/09 02:18:13;;;;;;;15.98;8.45;;;3.50;94.50;;;;;;5135845;27;37879;-64
2021/12/09 02:20:44;;;;;;;13.55;6.22;;;3.50;94.50;;;;;;5137738;27;36367;-65
2021/12/09 02:23:15;;;;;;;14.02;6.00;;;3.50;94.40;;;;;;5136138;27;36766;-64
2021/12/09 02:25:45;;;;;;;11.68;6.78;;;3.50;94.40;;;;;;5138029;27;37925;-65
2021/12/09 02:28:13;;;;;;;17.88;6.95;;;3.50;94.20;;;;;;5137630;27;37744;-65
2021/12/09 02:30:41;;;;;;;12.95;6.65;;;3.50;94.30;;;;;;5137741;27;38416;-64
2021/12/09 02:33:08;;;;;;;14.68;7.25;;;3.40;94.30;;;;;;5138632;27;36261;-64
2021/12/09 02:35:36;;;;;;;12.77;6.50;;;3.40;94.40;;;;;;5138574;27;37588;-64
2021/12/09 02:38:07;;;;;;;17.95;7.32;;;3.30;94.40;;;;;;5138536;27;37729;-64
2021/12/09 02:40:34;;;;;;;16.10;7.32;;;3.20;94.40;;;;;;5141657;27;36286;-65
2021/12/09 02:43:03;;;;;;;17.95;6.68;;;3.20;94.60;;;;;;5141151;27;36712;-65
2021/12/09 02:45:30;;;;;;;17.10;6.63;;;3.20;94.70;;;;;;5141625;27;37124;-64
2021/12/09 02:47:58;;;;;;;15.95;6.78;;;3.20;94.80;;;;;;5140835;27;37741;-65
2021/12/09 02:50:25;;;;;;;15.43;8.05;;;3.30;94.70;;;;;;5141030;27;36289;-64
2021/12/09 02:52:52;;;;;;;13.85;6.57;;;3.40;94.90;;;;;;5142122;27;36532;-64
2021/12/09 02:55:21;;;;;;;17.65;6.88;;;3.40;94.60;;;;;;5141944;27;38927;-64
2021/12/09 02:57:52;;;;;;;10.38;6.50;;;3.40;94.70;;;;;;5141044;27;38018;-65
2021/12/09 03:00:20;;;;;;;13.38;7.10;;;3.50;94.40;;;;;;5140999;27;37902;-64
2021/12/09 03:02:47;;;;;;;13.43;6.53;;;3.50;94.30;;;;;;5140320;27;35310;-64
2021/12/09 03:05:15;;;;;;;10.88;6.63;;;3.50;94.20;;;;;;5141612;27;37952;-63
2021/12/09 03:07:43;;;;;;;16.25;6.40;;;3.50;94.10;;;;;;5140563;27;37710;-64
2021/12/09 03:10:18;;;;;;;13.95;6.00;;;3.50;94.10;;;;;;5139692;27;38600;-64
2021/12/09 03:12:49;;;;;;;13.63;6.60;;;3.50;94.10;;;;;;5139903;27;36512;-64
2021/12/09 03:15:17;;;;;;;13.40;6.90;;;3.50;94.10;;;;;;5140083;27;37531;-64
2021/12/09 03:17:47;;;;;;;9.32;5.75;;;3.40;94.10;;;;;;5139654;27;36567;-65
2021/12/09 03:20:16;;;;;;;12.95;6.18;;;3.50;94.10;;;;;;5139698;27;38520;-64
2021/12/09 03:22:46;;;;;;;18.23;7.82;;;3.50;94.10;;;;;;5140683;27;36709;-64
2021/12/09 03:25:16;;;;;;;14.95;6.43;;;3.50;94.00;;;;;;5140984;27;38356;-64
2021/12/09 03:27:44;;;;;;;12.40;6.80;;;3.50;94.00;;;;;;5141302;27;36472;-65
2021/12/09 03:30:15;;;;;;;13.55;6.88;;;3.50;93.90;;;;;;5140834;27;38289;-64
2021/12/09 03:32:43;;;;;;;12.88;6.57;;;3.50;94.00;;;;;;5140311;27;37688;-65
2021/12/09 03:35:13;;;;;;;14.38;6.75;;;3.40;93.90;;;;;;5139464;27;37789;-65
2021/12/09 03:37:41;;;;;;;13.13;6.47;;;3.40;93.90;;;;;;5141062;27;37997;-64
2021/12/09 03:40:10;;;;;;;17.58;7.43;;;3.40;94.00;;;;;;5141042;27;37357;-64
2021/12/09 03:42:37;;;;;;;15.88;6.78;;;3.40;94.00;;;;;;5140198;27;36019;-64
2021/12/09 03:45:06;;;;;;;13.30;6.05;;;3.40;93.90;;;;;;5140405;27;37210;-65
2021/12/09 03:47:36;;;;;;;16.15;6.95;;;3.40;93.90;;;;;;5140219;27;37733;-64
2021/12/09 03:50:04;;;;;;;10.85;6.65;;;3.30;93.90;;;;;;5138765;27;36654;-64
2021/12/09 03:52:32;;;;;;;14.00;6.75;;;3.30;93.80;;;;;;5139572;27;36190;-64
2021/12/09 03:54:59;;;;;;;13.70;6.50;;;3.30;93.90;;;;;;5140990;27;38630;-64
2021/12/09 03:57:27;;;;;;;15.05;6.72;;;3.30;93.90;;;;;;5138846;27;39605;-64
2021/12/09 03:59:54;;;;;;;13.27;7.85;;;3.20;94.00;;;;;;5140510;27;37873;-64
2021/12/09 04:02:22;;;;;;;16.15;8.10;;;3.20;94.00;;;;;;5138754;27;37909;-64
2021/12/09 04:04:51;;;;;;;15.85;6.97;;;3.20;94.10;;;;;;5141230;27;39687;-64
2021/12/09 04:07:18;;;;;;;15.63;7.50;;;3.30;94.10;;;;;;5138882;27;37826;-64
2021/12/09 04:09:46;;;;;;;15.82;6.45;;;3.20;94.00;;;;;;5138060;27;37165;-64
2021/12/09 04:12:14;;;;;;;14.40;6.40;;;3.20;94.10;;;;;;5137989;27;36463;-64
2021/12/09 04:14:41;;;;;;;13.35;6.70;;;3.20;94.10;;;;;;5139455;27;38948;-64
2021/12/09 04:17:09;;;;;;;13.15;6.75;;;3.20;94.10;;;;;;5138278;27;37887;-64
2021/12/09 04:19:36;;;;;;;15.38;6.70;;;3.20;94.20;;;;;;5139736;27;38058;-64
2021/12/09 04:22:05;;;;;;;12.18;6.70;;;3.20;94.20;;;;;;5138802;27;36924;-64
2021/12/09 04:24:33;;;;;;;13.75;6.60;;;3.20;94.20;;;;;;5139297;27;36242;-64
2021/12/09 04:27:00;;;;;;;15.18;7.38;;;3.10;94.20;;;;;;5138761;27;38900;-63
2021/12/09 04:29:27;;;;;;;19.58;6.75;;;3.10;94.20;;;;;;5139726;27;37516;-64
2021/12/09 04:31:55;;;;;;;13.20;6.35;;;3.10;94.40;;;;;;5139706;27;35966;-64
2021/12/09 04:34:22;;;;;;;15.07;6.93;;;3.10;94.40;;;;;;5137720;27;37368;-65
2021/12/09 04:36:49;;;;;;;13.02;6.78;;;3.10;94.50;;;;;;5139261;27;36560;-64
2021/12/09 04:39:18;;;;;;;14.57;6.95;;;3.20;94.40;;;;;;5138997;27;38348;-64
2021/12/09 04:41:45;;;;;;;12.30;6.43;;;3.20;94.30;;;;;;5138897;27;36096;-65
2021/12/09 04:44:13;;;;;;;15.60;6.60;;;3.20;94.20;;;;;;5138367;27;38812;-64
2021/12/09 04:46:40;;;;;;;14.88;6.93;;;3.20;94.10;;;;;;5139110;27;36606;-64
2021/12/09 04:49:08;;;;;;;13.32;6.75;;;3.20;94.00;;;;;;5138227;27;37724;-64
2021/12/09 04:51:36;;;;;;;12.68;6.35;;;3.20;94.00;;;;;;5139095;27;36735;-64
2021/12/09 04:54:04;;;;;;;15.23;7.57;;;3.20;94.00;;;;;;5139556;27;37616;-64
2021/12/09 04:56:33;;;;;;;18.23;6.38;;;3.20;93.90;;;;;;5139034;27;38420;-62
2021/12/09 04:59:00;;;;;;;14.80;7.97;;;2.70;93.90;;;;;;5137457;27;37681;-64
2021/12/09 05:01:28;;;;;;;14.85;6.45;;;3.10;94.10;;;;;;5137868;27;35236;-64
2021/12/09 05:03:55;;;;;;;15.65;7.13;;;3.10;94.10;;;;;;5138826;27;37662;-64
2021/12/09 05:06:23;;;;;;;12.82;6.53;;;3.10;94.10;;;;;;5136348;27;37720;-64
2021/12/09 05:08:51;;;;;;;10.10;6.30;;;3.10;94.10;;;;;;5137495;27;36277;-64
2021/12/09 05:11:32;;;;;;;17.50;7.25;;;3.10;94.10;;;;;;5138350;27;36220;-64
2021/12/09 05:14:01;;;;;;;13.18;6.63;;;3.10;94.00;;;;;;5139506;27;36310;-64
2021/12/09 05:16:29;;;;;;;20.27;7.60;;;3.10;94.00;;;;;;5138486;27;37976;-65
2021/12/09 05:18:58;;;;;;;21.15;7.68;;;3.20;94.10;;;;;;5137350;27;38192;-64
2021/12/09 05:21:29;;;;;;;14.38;6.68;;;3.10;94.00;;;;;;5139056;27;36952;-65
2021/12/09 05:23:57;;;;;;;15.82;6.80;;;3.10;94.00;;;;;;5137209;27;36396;-65
2021/12/09 05:26:28;;;;;;;16.75;8.10;;;3.10;94.00;;;;;;5138513;27;36345;-64
2021/12/09 05:28:57;;;;;;;14.10;7.22;;;3.10;94.10;;;;;;5136650;27;39071;-64
2021/12/09 05:34:13;;;;;;;16.10;7.22;;;3.00;94.10;;;;;;5139159;27;38399;-65
2021/12/09 05:36:40;;;;;;;13.98;7.32;;;3.10;94.20;;;;;;5136686;27;36528;-65
2021/12/09 05:39:11;;;;;;;16.63;7.55;;;3.00;94.10;;;;;;5138142;27;37579;-64
2021/12/09 05:41:39;;;;;;;16.33;6.78;;;3.00;94.20;;;;;;5137844;27;36490;-64
2021/12/09 05:44:10;;;;;;;12.73;7.50;;;3.00;94.10;;;;;;5138780;27;37287;-64
2021/12/09 05:46:42;;;;;;;14.45;7.13;;;3.00;94.10;;;;;;5137097;27;37707;-64
2021/12/09 05:49:11;;;;;;;16.98;7.80;;;3.00;94.10;;;;;;5137101;27;39052;-64
2021/12/09 05:51:41;;;;;;;13.90;7.68;;;2.90;94.10;;;;;;5138158;27;36511;-64
2021/12/09 05:54:08;;;;;;;12.18;6.28;;;2.80;94.20;;;;;;5138725;27;36295;-64
2021/12/09 05:56:36;;;;;;;12.93;7.32;;;2.90;94.30;;;;;;5136229;27;37122;-64
2021/12/09 05:59:04;;;;;;;16.55;7.53;;;2.80;94.40;;;;;;5138540;27;37495;-64
2021/12/09 06:01:32;;;;;;;15.32;7.55;;;2.80;94.60;;;;;;5137946;27;37231;-64
2021/12/09 06:04:01;;;;;;;13.40;7.45;;;2.80;94.50;;;;;;5137873;27;36423;-64
2021/12/09 06:06:28;;;;;;;15.77;6.88;;;2.70;94.50;;;;;;5137505;27;38736;-64
2021/12/09 06:08:55;;;;;;;14.80;7.60;;;2.80;94.60;;;;;;5138503;27;40956;-64
2021/12/09 06:11:23;;;;;;;14.45;7.78;;;2.80;94.60;;;;;;5137367;27;36557;-65
2021/12/09 06:13:52;;;;;;;20.58;8.02;;;2.80;94.60;;;;;;5139209;27;38391;-64
2021/12/09 06:16:20;;;;;;;17.27;8.30;;;2.70;94.60;;;;;;5140176;27;38328;-63
2021/12/09 06:18:47;;;;;;;17.13;7.47;;;2.60;94.60;;;;;;5140430;27;37586;-64
2021/12/09 06:21:17;;;;;;;12.52;7.45;;;2.60;94.80;;;;;;5140529;27;38652;-64
2021/12/09 06:23:44;;;;;;;15.38;7.88;;;2.60;94.90;;;;;;5140850;27;37989;-64
2021/12/09 06:26:11;;;;;;;18.45;8.25;;;2.50;94.90;;;;;;5141073;27;41033;-64
2021/12/09 06:28:39;;;;;;;15.77;8.15;;;2.50;95.00;;;;;;5140261;27;37437;-64
2021/12/09 06:31:07;;;;;;;14.77;7.60;;;2.40;95.20;;;;;;5141333;27;35347;-64
2021/12/09 06:33:34;;;;;;;13.63;7.70;;;2.50;95.30;;;;;;5139030;27;40065;-64
2021/12/09 06:36:02;;;;;;;15.43;7.90;;;2.50;95.20;;;;;;5141920;27;37459;-64
2021/12/09 06:38:31;;;;;;;17.45;8.50;;;2.60;95.20;;;;;;5139352;27;38706;-64
2021/12/09 06:40:58;;;;;;;16.42;7.35;;;2.70;95.10;;;;;;5140764;27;37604;-64
2021/12/09 06:43:26;;;;;;;16.73;7.57;;;2.70;94.90;;;;;;5140268;27;36416;-64
2021/12/09 06:45:54;;;;;;;17.40;8.20;;;2.70;94.90;;;;;;5141474;27;37725;-64
2021/12/09 06:48:21;;;;;;;14.15;6.60;;;2.80;94.80;;;;;;5140514;27;37337;-65
2021/12/09 06:50:49;;;;;;;21.25;8.68;;;2.80;94.80;;;;;;5141189;27;37183;-64
2021/12/09 06:53:16;;;;;;;11.32;7.00;;;2.90;94.70;;;;;;5138153;27;40878;-64
2021/12/09 06:55:45;;;;;;;15.57;8.43;;;2.90;94.60;;;;;;5139967;27;37627;-64
2021/12/09 06:58:13;;;;;;;15.25;7.07;;;2.90;94.50;;;;;;5139788;27;38050;-64
2021/12/09 07:00:46;;;;;;;16.40;7.85;;;2.90;94.40;;;;;;5140006;27;36784;-64
2021/12/09 07:03:16;;;;;;;15.07;7.43;;;2.90;94.40;;;;;;5140216;27;39329;-65
2021/12/09 07:05:44;;;;;;;15.73;7.82;;;2.90;94.40;;;;;;5139556;27;37739;-64
2021/12/09 07:08:12;;;;;;;15.13;6.70;;;2.80;94.40;;;;;;5139606;27;37172;-64
2021/12/09 07:10:40;;;;;;;15.27;7.28;;;2.80;94.40;;;;;;5138959;27;35831;-64
2021/12/09 07:13:09;;;;;;;19.67;8.30;;;2.80;94.30;;;;;;5139196;27;36367;-64
2021/12/09 07:15:37;;;;;;;13.63;7.70;;;2.80;94.30;;;;;;5140429;27;37178;-63
2021/12/09 07:18:05;;;;;;;16.45;6.70;;;2.80;94.30;;;;;;5139713;27;37982;-64
2021/12/09 07:20:33;;;;;;;14.60;7.25;;;2.80;94.20;;;;;;5140533;27;34292;-64
2021/12/09 07:23:01;;;;;;;16.33;8.30;;;2.90;94.30;;;;;;5139018;27;37351;-64
2021/12/09 07:25:30;;;;;;;18.90;7.00;;;2.80;94.30;;;;;;5140470;27;37782;-63
2021/12/09 07:27:58;;;;;;;16.77;7.80;;;2.80;94.30;;;;;;5138701;27;37236;-64
2021/12/09 07:30:27;;;;;;;13.93;7.10;;;2.80;94.30;;;;;;5139928;27;38476;-64
2021/12/09 07:32:54;;;;;;;16.38;7.50;;;2.80;94.30;;;;;;5140326;27;37548;-64
2021/12/09 07:35:23;;;;;;;16.10;7.22;;;2.70;94.30;;;;;;5140704;27;39548;-64
2021/12/09 07:37:50;;;;;;;14.38;7.43;;;2.70;94.30;;;;;;5137585;27;38371;-64
2021/12/09 07:40:19;;;;;;;14.68;7.30;;;2.80;94.30;;;;;;5138685;27;38459;-64
2021/12/09 07:42:47;;;;;;;13.43;7.13;;;2.80;94.30;;;;;;5138992;27;37407;-64
2021/12/09 07:45:16;;;;;;;13.98;7.68;;;2.80;94.20;;;;;;5139914;27;36735;-64
2021/12/09 07:47:45;;;;;;;14.68;8.77;;;2.80;94.20;;;;;;5139571;27;36116;-65
2021/12/09 07:50:16;;;;;;;15.32;7.03;;;2.80;94.10;;;;;;5139509;27;35942;-64
2021/12/09 07:52:44;;;;;;;16.17;7.18;;;2.70;94.10;;;;;;5137645;27;36253;-64
2021/12/09 07:55:12;;;;;;;17.67;7.40;;;2.70;94.20;;;;;;5138527;27;38405;-65
2021/12/09 07:57:40;;;;;;;17.02;8.38;;;2.70;94.60;;;;;;5136923;27;37479;-64
2021/12/09 08:00:11;;;;;;;18.15;7.55;;;2.70;94.30;;;;;;5138606;27;36762;-65
2021/12/09 08:02:38;;;;;;;16.58;7.10;;;2.70;94.40;;;;;;5139713;27;39581;-65
2021/12/09 08:05:08;;;;;;;14.23;6.85;;;2.70;94.40;;;;;;5138874;27;37273;-65
2021/12/09 08:07:37;;;;;;;11.73;6.93;;;2.70;94.40;;;;;;5139177;27;38676;-65
2021/12/09 08:10:05;;;;;;;12.85;7.03;;;2.80;94.40;;;;;;5136430;27;36967;-65
2021/12/09 08:12:33;;;;;;;16.92;6.57;;;2.80;94.30;;;;;;5139691;27;37526;-64
2021/12/09 08:15:00;;;;;;;13.48;6.75;;;2.90;94.30;;;;;;5137683;27;38353;-65
2021/12/09 08:17:58;;;;;;;16.17;7.13;;;2.90;94.20;;;;;;5140433;27;36159;-65
2021/12/09 08:20:27;;;;;;;11.80;6.75;;;3.00;94.10;;;;;;5138600;27;36402;-63
2021/12/09 08:22:55;;;;;;;16.23;7.68;;;3.00;94.10;;;;;;5139539;27;38599;-64
2021/12/09 08:25:24;;;;;;;11.95;6.85;;;3.00;94.00;;;;;;5139000;27;37601;-64
2021/12/09 08:27:52;;;;;;;15.30;7.45;;;3.10;94.00;;;;;;5140349;27;38763;-65
2021/12/09 08:30:21;;;;;;;19.70;10.00;;;3.30;93.90;;;;;;5138162;27;36767;-65
2021/12/09 08:32:49;;;;;;;21.50;7.25;;;3.40;93.80;;;;;;5137175;27;37905;-64
2021/12/09 08:35:16;;;;;;;17.50;7.93;;;3.50;93.60;;;;;;5135833;27;39364;-65
2021/12/09 08:37:46;;;;;;;16.38;7.03;;;3.60;93.50;;;;;;5135730;27;37467;-65
2021/12/09 08:40:16;;;;;;;21.30;8.57;;;3.70;93.40;;;;;;5136153;27;36561;-64
2021/12/09 08:42:45;;;;;;;17.35;7.55;;;3.70;93.30;;;;;;5138675;27;37255;-65
2021/12/09 08:45:13;;;;;;;14.85;6.65;;;3.80;93.30;;;;;;5137060;27;40016;-65
2021/12/09 08:47:42;;;;;;;13.27;6.38;;;3.80;93.20;;;;;;5138870;27;37407;-64
2021/12/09 08:50:12;;;;;;;16.20;7.32;;;3.90;93.30;;;;;;5138972;27;36401;-65
2021/12/09 08:52:40;;;;;;;18.90;7.18;;;3.90;93.20;;;;;;5138243;27;38337;-64
2021/12/09 08:55:09;;;;;;;16.42;7.85;;;4.10;93.10;;;;;;5138634;27;38813;-64
2021/12/09 08:57:37;;;;;;;14.93;7.15;;;4.00;93.00;;;;;;5135726;27;37259;-64
2021/12/09 09:00:09;;;;;;;16.35;7.28;;;4.10;92.90;;;;;;5138185;27;36797;-64
2021/12/09 09:02:37;;;;;;;13.55;6.35;;;4.20;92.80;;;;;;5138330;27;38266;-64
2021/12/09 09:05:08;;;;;;;13.05;6.93;;;4.40;92.90;;;;;;5138186;27;38234;-64
2021/12/09 09:07:35;;;;;;;14.52;7.03;;;4.60;92.40;;;;;;5136624;27;37961;-65
2021/12/09 09:10:03;;;;;;;13.93;6.30;;;4.80;91.90;;;;;;5138053;27;35518;-64
2021/12/09 09:12:33;;;;;;;14.20;7.35;;;5.00;91.70;;;;;;5135196;27;38632;-65
2021/12/09 09:15:00;;;;;;;15.60;8.38;;;5.20;91.60;;;;;;5137101;27;37645;-65
2021/12/09 09:17:28;;;;;;;13.85;6.28;;;5.20;91.50;;;;;;5137245;27;37159;-64
2021/12/09 09:19:55;;;;;;;13.95;5.97;;;5.40;91.40;;;;;;5138701;27;36575;-65
2021/12/09 09:22:23;;;;;;;16.52;6.35;;;5.30;91.00;;;;;;5138128;27;36071;-64
2021/12/09 09:24:50;;;;;;;10.45;5.95;;;5.30;91.30;;;;;;5138192;27;38809;-64
2021/12/09 09:27:17;;;;;;;12.07;6.05;;;5.20;91.30;;;;;;5136436;27;37668;-64
2021/12/09 09:29:46;;;;;;;14.52;5.78;;;5.20;91.30;;;;;;5138756;27;36221;-65
2021/12/09 09:32:14;;;;;;;17.75;6.25;;;5.40;91.70;;;;;;5136911;27;37055;-64
2021/12/09 09:34:42;;;;;;;11.25;5.63;;;5.50;91.50;;;;;;5137218;27;37760;-64
2021/12/09 09:37:10;;;;;;;15.65;6.07;;;5.70;91.60;;;;;;5137414;27;39044;-64
2021/12/09 09:39:42;;;;;;;14.80;5.88;;;5.90;91.30;;;;;;5138782;27;37339;-65
2021/12/09 09:42:32;;;;;;;12.73;5.78;;;6.10;91.00;;;;;;5136112;27;38881;-65
2021/12/09 09:45:01;;;;;;;13.02;5.43;;;6.30;90.60;;;;;;5138583;27;37963;-64
2021/12/09 09:47:29;;;;;;;14.35;5.65;;;6.60;90.30;;;;;;5135642;27;37315;-64
2021/12/09 09:49:58;;;;;;;13.63;6.05;;;6.90;89.90;;;;;;5138815;27;36856;-65
2021/12/09 09:52:26;;;;;;;15.18;6.20;;;7.00;88.60;;;;;;5135795;27;35548;-65
2021/12/09 09:54:56;;;;;;;15.68;6.03;;;6.90;88.30;;;;;;5139338;27;37629;-65
2021/12/09 09:57:25;;;;;;;13.00;5.57;;;6.90;88.40;;;;;;5135324;27;37184;-65
2021/12/09 09:59:53;;;;;;;14.52;5.35;;;6.90;89.30;;;;;;5137883;27;36472;-64
2021/12/09 10:02:21;;;;;;;14.25;5.47;;;6.80;90.00;;;;;;5136078;27;36296;-64
2021/12/09 10:04:57;;;;;;;12.60;5.43;;;6.70;90.00;;;;;;5137189;27;36618;-65
2021/12/09 10:07:25;;;;;;;11.18;5.25;;;6.80;90.40;;;;;;5135356;27;37287;-64
2021/12/09 10:09:54;;;;;;;11.95;5.78;;;6.90;90.20;;;;;;5137268;27;36424;-65
2021/12/09 10:12:22;;;;;;;13.00;5.40;;;6.80;90.50;;;;;;5135237;27;37791;-65
2021/12/09 10:14:51;;;;;;;15.70;5.05;;;6.60;90.00;;;;;;5136953;27;38534;-64
2021/12/09 10:17:22;;;;;;;15.15;5.78;;;6.60;90.70;;;;;;5136081;27;37497;-64
2021/12/09 10:19:52;;;;;;;10.10;6.00;;;6.50;90.70;;;;;;5137812;27;36984;-64
2021/12/09 10:22:21;;;;;;;15.85;5.88;;;6.50;91.40;;;;;;5136907;27;39122;-64
2021/12/09 10:24:51;;;;;;;12.13;5.32;;;6.40;91.20;;;;;;5136024;27;37168;-63
2021/12/09 10:27:25;;;;;;;13.48;5.32;;;6.30;91.50;;;;;;5134520;27;37289;-64
2021/12/09 10:29:57;;;;;;;14.43;5.68;;;6.20;91.60;;;;;;5136226;27;36393;-66
2021/12/09 10:32:30;;;;;;;21.90;7.03;;;6.10;91.60;;;;;;5135840;27;39098;-65
2021/12/09 10:35:05;;;;;;;12.85;5.40;;;5.90;91.80;;;;;;5136830;27;36637;-64
2021/12/09 10:37:33;;;;;;;18.10;6.50;;;5.80;91.90;;;;;;5136877;27;36259;-64
2021/12/09 10:40:05;;;;;;;14.43;5.97;;;5.70;92.20;;;;;;5137336;27;36222;-64
2021/12/09 10:42:35;;;;;;;14.07;6.10;;;5.60;92.60;;;;;;5134591;27;37448;-62
2021/12/09 10:45:05;;;;;;;15.32;7.07;;;5.40;93.30;;;;;;5136728;27;38471;-63
2021/12/09 10:47:51;;;;;;;20.98;7.68;;;5.20;93.40;;;;;;5136214;27;36250;-63
2021/12/09 10:50:32;;;;;;;18.38;8.00;;;5.10;93.90;;;;;;5136991;27;36637;-63
2021/12/09 10:53:19;;;;;;;19.77;7.20;;;5.00;94.40;;;;;;5137693;27;40172;-63
2021/12/09 10:55:47;;;;;;;17.30;7.60;;;4.90;94.40;;;;;;5136596;27;38121;-63
2021/12/09 10:58:17;;;;;;;16.75;7.88;;;4.70;94.80;;;;;;5135376;27;37195;-63
2021/12/09 11:00:46;;;;;;;13.90;8.00;;;4.50;94.80;;;;;;5139317;27;37008;-62
2021/12/09 11:03:19;;;;;;;15.95;7.18;;;4.40;95.20;;;;;;5139554;27;38052;-63
2021/12/09 11:05:51;;;;;;;18.40;7.65;;;4.40;95.50;;;;;;5138775;27;39001;-63
2021/12/09 11:08:22;;;;;;;16.00;7.90;;;4.40;95.40;;;;;;5138821;27;38215;-62
2021/12/09 11:10:53;;;;;;;20.13;8.60;;;4.30;95.60;;;;;;5139467;27;35224;-63
2021/12/09 11:13:22;;;;;;;16.45;7.47;;;4.30;95.50;;;;;;5139459;27;37972;-63
2021/12/09 11:15:54;;;;;;;15.88;7.63;;;4.30;95.70;;;;;;5137889;27;36533;-63
2021/12/09 11:18:32;;;;;;;19.45;8.23;;;4.20;95.60;;;;;;5140260;27;37359;-63
2021/12/09 11:21:02;;;;;;;19.08;9.25;;;4.10;95.80;;;;;;5140725;27;37563;-63
2021/12/09 11:23:37;;;;;;;15.93;7.53;;;4.20;96.00;;;;;;5138145;27;38066;-63
2021/12/09 11:26:32;;;;;;;19.55;7.57;;;4.20;96.10;;;;;;5140304;27;37966;-63
2021/12/09 11:29:02;;;;;;;14.23;7.35;;;4.20;96.30;;;;;;5138174;27;38335;-63
2021/12/09 11:31:33;;;;;;;18.13;8.60;;;4.10;96.10;;;;;;5139595;27;37858;-63
2021/12/09 11:34:10;;;;;;;18.50;7.47;;;4.10;96.30;;;;;;5138970;27;37676;-63
2021/12/09 11:36:45;;;;;;;17.98;9.00;;;4.00;96.30;;;;;;5140710;27;39039;-63
2021/12/09 11:39:18;;;;;;;16.52;8.23;;;4.00;96.50;;;;;;5138634;27;37664;-63
2021/12/09 11:41:47;;;;;;;20.27;9.52;;;4.10;96.40;;;;;;5137888;27;37699;-63
2021/12/09 11:44:15;;;;;;;20.30;9.55;;;4.10;96.60;;;;;;5138035;27;37437;-63
2021/12/09 11:46:44;;;;;;;19.50;8.90;;;4.00;96.60;;;;;;5139710;27;38064;-63
2021/12/09 11:49:13;;;;;;;19.15;8.68;;;4.10;96.60;;;;;;5138408;27;37894;-63
2021/12/09 11:51:41;;;;;;;26.90;10.15;;;4.10;96.80;;;;;;5138225;27;36323;-64
2021/12/09 11:54:11;;;;;;;22.52;9.32;;;4.10;96.80;;;;;;5138003;27;37510;-63
2021/12/09 11:56:56;;;;;;;18.70;8.85;;;4.10;96.80;;;;;;5138554;27;39182;-63
2021/12/09 11:59:51;;;;;;;25.00;10.10;;;4.10;96.80;;;;;;5138361;27;36449;-63
2021/12/09 12:11:39;;;;;;;24.17;10.10;;;4.00;97.20;;;;;;5138023;27;38089;-64
2021/12/09 12:14:32;;;;;;;21.55;9.07;;;4.00;97.20;;;;;;5139674;27;37874;-64
2021/12/09 12:17:09;;;;;;;19.55;8.93;;;4.10;97.20;;;;;;5138592;27;37554;-63
2021/12/09 12:20:24;;;;;;;24.80;8.98;;;4.10;97.10;;;;;;5138833;27;37519;-63
2021/12/09 12:23:15;;;;;;;;;;;4.10;97.10;;;;;;5139827;27;38596;-64
2021/12/09 12:28:41;;;;;;;19.48;8.43;;;4.10;97.10;;;;;;5115856;27;38086;-63
2021/12/09 12:31:27;;;;;;;16.15;8.40;;;4.10;97.10;;;;;;5137195;27;40303;-55
2021/12/09 12:34:34;;;;;;;18.77;9.85;;;4.10;97.00;;;;;;5136643;27;37316;-54
2021/12/09 12:37:13;;;;;;;19.20;8.93;;;4.20;97.00;;;;;;5137056;27;37011;-54
2021/12/09 12:39:59;;;;;;;17.05;8.30;;;4.20;97.00;;;;;;5137390;27;37937;-64
2021/12/09 12:42:43;;;;;;;16.63;9.10;;;4.20;97.00;;;;;;5136593;27;37537;-63
2021/12/09 12:51:53;;;;;;;30.63;11.82;;;4.20;97.20;;;;;;5138021;27;38447;-63
2021/12/09 12:54:34;;;;;;;20.40;8.93;;;4.30;97.10;;;;;;5134795;27;38926;-63
2021/12/09 12:57:12;;;;;;;18.90;9.55;;;4.30;97.10;;;;;;5137003;27;36414;-64
2021/12/09 12:59:41;;;;;;;17.10;8.65;;;4.30;97.10;;;;;;5137390;27;36559;-63
2021/12/09 13:02:38;;;;;;;18.25;9.43;;;4.30;97.10;;;;;;5138369;27;38686;-63
2021/12/09 13:05:22;;;;;;;23.77;9.98;;;4.30;97.10;;;;;;5136297;27;36442;-64
2021/12/09 13:08:21;;;;;;;20.17;9.63;;;4.30;97.10;;;;;;5140282;27;36192;-63
2021/12/09 13:11:03;;;;;;;22.77;10.57;;;4.40;97.10;;;;;;5140150;27;36517;-63
2021/12/09 13:13:42;;;;;;;24.73;11.55;;;4.40;97.10;;;;;;5136627;27;37960;-63
2021/12/09 13:16:16;;;;;;;24.40;10.32;;;4.40;97.20;;;;;;5137647;27;37589;-63
2021/12/09 13:19:09;;;;;;;22.10;11.48;;;4.40;97.10;;;;;;5138733;27;37685;-63
2021/12/09 13:21:45;;;;;;;20.52;9.98;;;4.50;97.10;;;;;;5137873;27;36716;-64
2021/12/09 13:24:38;;;;;;;21.55;12.00;;;4.50;97.10;;;;;;5136675;27;38108;-64
2021/12/09 13:30:46;;;;;;;20.50;10.73;;;4.50;97.20;;;;;;5134227;27;39266;-63